sensor_id;sensor_type;location;lat;lon;timestamp;P1;durP1;ratioP1;P2;durP2;ratioP2
5333;SDS011;2689;50.954;7.116;2023-02-19T00:01:30;5.60;;;5.03;;
5333;SDS011;2689;50.954;7.116;2023-02-19T00:03:58;4.80;;;4.30;;
5333;SDS011;2689;50.954;7.116;2023-02-19T00:06:27;5.40;;;4.90;;
5333;SDS011;2689;50.954;7.116;2023-02-19T00:08:55;5.33;;;4.83;;
5333;SDS011;2689;50.954;7.116;2023-02-19T00:11:24;6.07;;;5.57;;
5333;SDS011;2689;50.954;7.116;2023-02-19T00:13:53;6.57;;;5.50;;
5333;SDS011;2689;50.954;7.116;2023-02-19T00:16:22;6.73;;;6.13;;
5333;SDS011;2689;50.954;7.116;2023-02-19T00:18:51;6.97;;;5.90;;
5333;SDS011;2689;50.954;7.116;2023-02-19T00:21:18;6.30;;;5.70;;
5333;SDS011;2689;50.954;7.116;2023-02-19T00:23:47;8.90;;;6.57;;
5333;SDS011;2689;50.954;7.116;2023-02-19T00:26:15;6.63;;;5.93;;
5333;SDS011;2689;50.954;7.116;2023-02-19T00:28:42;7.50;;;6.77;;
5333;SDS011;2689;50.954;7.116;2023-02-19T00:31:13;9.40;;;6.50;;
5333;SDS011;2689;50.954;7.116;2023-02-19T00:33:42;7.83;;;6.63;;
5333;SDS011;2689;50.954;7.116;2023-02-19T00:36:11;6.03;;;5.43;;
5333;SDS011;2689;50.954;7.116;2023-02-19T00:38:39;7.97;;;6.73;;
5333;SDS011;2689;50.954;7.116;2023-02-19T00:41:06;7.03;;;6.33;;
5333;SDS011;2689;50.954;7.116;2023-02-19T00:43:44;6.30;;;5.30;;
5333;SDS011;2689;50.954;7.116;2023-02-19T00:46:11;6.90;;;5.43;;
5333;SDS011;2689;50.954;7.116;2023-02-19T00:48:39;6.23;;;5.63;;
5333;SDS011;2689;50.954;7.116;2023-02-19T00:52:03;5.20;;;4.63;;
5333;SDS011;2689;50.954;7.116;2023-02-19T00:55:31;4.60;;;3.80;;
5333;SDS011;2689;50.954;7.116;2023-02-19T00:57:58;6.90;;;6.30;;
5333;SDS011;2689;50.954;7.116;2023-02-19T01:00:25;5.57;;;5.07;;
5333;SDS011;2689;50.954;7.116;2023-02-19T01:02:51;5.63;;;4.83;;
5333;SDS011;2689;50.954;7.116;2023-02-19T01:05:18;7.40;;;6.70;;
5333;SDS011;2689;50.954;7.116;2023-02-19T01:07:46;6.80;;;6.10;;
5333;SDS011;2689;50.954;7.116;2023-02-19T01:10:13;7.30;;;6.60;;
5333;SDS011;2689;50.954;7.116;2023-02-19T01:12:40;7.10;;;6.23;;
5333;SDS011;2689;50.954;7.116;2023-02-19T01:15:07;7.73;;;6.47;;
5333;SDS011;2689;50.954;7.116;2023-02-19T01:17:34;7.93;;;7.13;;
5333;SDS011;2689;50.954;7.116;2023-02-19T01:20:01;8.33;;;7.40;;
5333;SDS011;2689;50.954;7.116;2023-02-19T01:22:28;7.37;;;6.60;;
5333;SDS011;2689;50.954;7.116;2023-02-19T01:24:56;11.70;;;7.60;;
5333;SDS011;2689;50.954;7.116;2023-02-19T01:27:23;6.03;;;5.50;;
5333;SDS011;2689;50.954;7.116;2023-02-19T01:29:50;5.13;;;4.33;;
5333;SDS011;2689;50.954;7.116;2023-02-19T01:32:17;6.00;;;5.37;;
5333;SDS011;2689;50.954;7.116;2023-02-19T01:34:43;5.97;;;5.43;;
5333;SDS011;2689;50.954;7.116;2023-02-19T01:37:10;10.13;;;6.33;;
5333;SDS011;2689;50.954;7.116;2023-02-19T01:39:37;9.10;;;6.30;;
5333;SDS011;2689;50.954;7.116;2023-02-19T01:42:09;6.17;;;5.37;;
5333;SDS011;2689;50.954;7.116;2023-02-19T01:47:49;7.73;;;6.00;;
5333;SDS011;2689;50.954;7.116;2023-02-19T01:50:23;8.97;;;5.80;;
5333;SDS011;2689;50.954;7.116;2023-02-19T01:52:53;6.57;;;5.90;;
5333;SDS011;2689;50.954;7.116;2023-02-19T01:55:20;9.43;;;5.50;;
5333;SDS011;2689;50.954;7.116;2023-02-19T01:57:50;6.33;;;4.20;;
5333;SDS011;2689;50.954;7.116;2023-02-19T02:00:19;8.30;;;4.47;;
5333;SDS011;2689;50.954;7.116;2023-02-19T02:02:50;4.37;;;3.97;;
5333;SDS011;2689;50.954;7.116;2023-02-19T02:05:20;8.30;;;5.67;;
5333;SDS011;2689;50.954;7.116;2023-02-19T02:07:53;6.87;;;5.27;;
5333;SDS011;2689;50.954;7.116;2023-02-19T02:10:48;5.13;;;4.30;;
5333;SDS011;2689;50.954;7.116;2023-02-19T02:13:17;6.73;;;5.10;;
5333;SDS011;2689;50.954;7.116;2023-02-19T02:15:47;7.07;;;5.07;;
5333;SDS011;2689;50.954;7.116;2023-02-19T02:18:22;7.00;;;5.90;;
5333;SDS011;2689;50.954;7.116;2023-02-19T02:21:10;8.20;;;4.70;;
5333;SDS011;2689;50.954;7.116;2023-02-19T02:24:01;6.97;;;5.10;;
5333;SDS011;2689;50.954;7.116;2023-02-19T02:26:50;7.10;;;6.40;;
5333;SDS011;2689;50.954;7.116;2023-02-19T02:29:35;8.30;;;6.93;;
5333;SDS011;2689;50.954;7.116;2023-02-19T02:32:16;5.87;;;4.60;;
5333;SDS011;2689;50.954;7.116;2023-02-19T02:34:47;9.37;;;7.10;;
5333;SDS011;2689;50.954;7.116;2023-02-19T02:37:17;8.10;;;4.43;;
5333;SDS011;2689;50.954;7.116;2023-02-19T02:39:45;8.10;;;6.07;;
5333;SDS011;2689;50.954;7.116;2023-02-19T02:42:12;8.83;;;6.63;;
5333;SDS011;2689;50.954;7.116;2023-02-19T02:44:55;10.47;;;5.97;;
5333;SDS011;2689;50.954;7.116;2023-02-19T02:47:41;8.63;;;7.10;;
5333;SDS011;2689;50.954;7.116;2023-02-19T02:50:14;8.87;;;6.80;;
5333;SDS011;2689;50.954;7.116;2023-02-19T02:52:44;9.73;;;6.70;;
5333;SDS011;2689;50.954;7.116;2023-02-19T02:55:34;7.10;;;6.40;;
5333;SDS011;2689;50.954;7.116;2023-02-19T02:58:04;8.27;;;6.23;;
5333;SDS011;2689;50.954;7.116;2023-02-19T03:00:33;10.03;;;6.70;;
5333;SDS011;2689;50.954;7.116;2023-02-19T03:03:19;9.27;;;6.53;;
5333;SDS011;2689;50.954;7.116;2023-02-19T03:05:49;10.10;;;6.17;;
5333;SDS011;2689;50.954;7.116;2023-02-19T03:08:21;9.20;;;7.00;;
5333;SDS011;2689;50.954;7.116;2023-02-19T03:10:53;9.30;;;6.00;;
5333;SDS011;2689;50.954;7.116;2023-02-19T03:13:24;8.67;;;5.90;;
5333;SDS011;2689;50.954;7.116;2023-02-19T03:16:13;7.80;;;5.63;;
5333;SDS011;2689;50.954;7.116;2023-02-19T03:19:00;5.93;;;4.80;;
5333;SDS011;2689;50.954;7.116;2023-02-19T03:21:45;9.80;;;6.63;;
5333;SDS011;2689;50.954;7.116;2023-02-19T03:24:16;7.73;;;4.57;;
5333;SDS011;2689;50.954;7.116;2023-02-19T03:27:04;9.50;;;7.67;;
5333;SDS011;2689;50.954;7.116;2023-02-19T03:29:33;7.73;;;6.13;;
5333;SDS011;2689;50.954;7.116;2023-02-19T03:32:05;10.60;;;8.23;;
5333;SDS011;2689;50.954;7.116;2023-02-19T03:34:37;10.50;;;5.40;;
5333;SDS011;2689;50.954;7.116;2023-02-19T03:37:09;13.87;;;8.90;;
5333;SDS011;2689;50.954;7.116;2023-02-19T03:39:39;10.27;;;7.60;;
5333;SDS011;2689;50.954;7.116;2023-02-19T03:42:13;11.77;;;8.20;;
5333;SDS011;2689;50.954;7.116;2023-02-19T03:44:46;14.00;;;8.50;;
5333;SDS011;2689;50.954;7.116;2023-02-19T03:47:20;14.93;;;9.57;;
5333;SDS011;2689;50.954;7.116;2023-02-19T03:49:52;12.93;;;8.77;;
5333;SDS011;2689;50.954;7.116;2023-02-19T03:52:25;13.37;;;9.03;;
5333;SDS011;2689;50.954;7.116;2023-02-19T03:54:59;13.73;;;9.57;;
5333;SDS011;2689;50.954;7.116;2023-02-19T03:57:32;16.80;;;9.70;;
5333;SDS011;2689;50.954;7.116;2023-02-19T04:00:09;14.17;;;10.63;;
5333;SDS011;2689;50.954;7.116;2023-02-19T04:02:41;13.03;;;9.10;;
5333;SDS011;2689;50.954;7.116;2023-02-19T04:05:14;15.40;;;9.53;;
5333;SDS011;2689;50.954;7.116;2023-02-19T04:07:44;13.47;;;8.80;;
5333;SDS011;2689;50.954;7.116;2023-02-19T04:10:13;18.00;;;11.73;;
5333;SDS011;2689;50.954;7.116;2023-02-19T04:12:43;12.70;;;9.40;;
5333;SDS011;2689;50.954;7.116;2023-02-19T04:15:14;14.00;;;10.00;;
5333;SDS011;2689;50.954;7.116;2023-02-19T04:17:48;18.37;;;9.60;;
5333;SDS011;2689;50.954;7.116;2023-02-19T04:20:19;12.43;;;8.40;;
5333;SDS011;2689;50.954;7.116;2023-02-19T04:22:48;12.70;;;8.70;;
5333;SDS011;2689;50.954;7.116;2023-02-19T04:25:16;19.27;;;10.10;;
5333;SDS011;2689;50.954;7.116;2023-02-19T04:27:43;14.93;;;8.80;;
5333;SDS011;2689;50.954;7.116;2023-02-19T04:30:11;11.67;;;9.50;;
5333;SDS011;2689;50.954;7.116;2023-02-19T04:32:39;18.83;;;10.77;;
5333;SDS011;2689;50.954;7.116;2023-02-19T04:35:07;16.27;;;11.30;;
5333;SDS011;2689;50.954;7.116;2023-02-19T04:37:34;23.77;;;12.10;;
5333;SDS011;2689;50.954;7.116;2023-02-19T04:40:01;16.00;;;11.50;;
5333;SDS011;2689;50.954;7.116;2023-02-19T04:42:28;18.63;;;10.47;;
5333;SDS011;2689;50.954;7.116;2023-02-19T04:44:54;20.97;;;11.60;;
5333;SDS011;2689;50.954;7.116;2023-02-19T04:47:21;20.73;;;11.20;;
5333;SDS011;2689;50.954;7.116;2023-02-19T04:49:48;17.20;;;11.23;;
5333;SDS011;2689;50.954;7.116;2023-02-19T04:52:16;18.63;;;12.33;;
5333;SDS011;2689;50.954;7.116;2023-02-19T04:54:43;19.17;;;12.30;;
5333;SDS011;2689;50.954;7.116;2023-02-19T04:57:09;14.43;;;10.60;;
5333;SDS011;2689;50.954;7.116;2023-02-19T04:59:36;20.40;;;12.47;;
5333;SDS011;2689;50.954;7.116;2023-02-19T05:02:03;16.33;;;10.60;;
5333;SDS011;2689;50.954;7.116;2023-02-19T05:04:30;18.03;;;11.10;;
5333;SDS011;2689;50.954;7.116;2023-02-19T05:06:56;16.10;;;11.33;;
5333;SDS011;2689;50.954;7.116;2023-02-19T05:09:25;11.83;;;9.13;;
5333;SDS011;2689;50.954;7.116;2023-02-19T05:11:52;18.07;;;12.03;;
5333;SDS011;2689;50.954;7.116;2023-02-19T05:14:18;19.50;;;10.87;;
5333;SDS011;2689;50.954;7.116;2023-02-19T05:16:45;19.17;;;11.50;;
5333;SDS011;2689;50.954;7.116;2023-02-19T05:19:12;14.90;;;10.97;;
5333;SDS011;2689;50.954;7.116;2023-02-19T05:21:39;17.97;;;12.83;;
5333;SDS011;2689;50.954;7.116;2023-02-19T05:24:06;19.50;;;14.67;;
5333;SDS011;2689;50.954;7.116;2023-02-19T05:26:34;18.90;;;14.30;;
5333;SDS011;2689;50.954;7.116;2023-02-19T05:29:01;22.10;;;11.23;;
5333;SDS011;2689;50.954;7.116;2023-02-19T05:31:28;19.30;;;14.90;;
5333;SDS011;2689;50.954;7.116;2023-02-19T05:33:57;22.20;;;13.40;;
5333;SDS011;2689;50.954;7.116;2023-02-19T05:36:24;25.80;;;14.27;;
5333;SDS011;2689;50.954;7.116;2023-02-19T05:38:51;19.60;;;13.40;;
5333;SDS011;2689;50.954;7.116;2023-02-19T05:41:19;23.70;;;13.30;;
5333;SDS011;2689;50.954;7.116;2023-02-19T05:43:49;24.40;;;14.60;;
5333;SDS011;2689;50.954;7.116;2023-02-19T05:46:17;27.77;;;15.50;;
5333;SDS011;2689;50.954;7.116;2023-02-19T05:48:46;23.97;;;14.90;;
5333;SDS011;2689;50.954;7.116;2023-02-19T05:51:14;26.17;;;16.37;;
5333;SDS011;2689;50.954;7.116;2023-02-19T05:53:43;20.57;;;12.60;;
5333;SDS011;2689;50.954;7.116;2023-02-19T05:59:00;25.13;;;13.73;;
5333;SDS011;2689;50.954;7.116;2023-02-19T06:01:29;22.40;;;14.90;;
5333;SDS011;2689;50.954;7.116;2023-02-19T06:03:56;24.10;;;14.70;;
5333;SDS011;2689;50.954;7.116;2023-02-19T06:06:23;15.83;;;10.20;;
5333;SDS011;2689;50.954;7.116;2023-02-19T06:08:51;17.20;;;13.30;;
5333;SDS011;2689;50.954;7.116;2023-02-19T06:11:18;20.00;;;13.23;;
5333;SDS011;2689;50.954;7.116;2023-02-19T06:13:45;13.57;;;9.87;;
5333;SDS011;2689;50.954;7.116;2023-02-19T06:16:15;25.60;;;13.13;;
5333;SDS011;2689;50.954;7.116;2023-02-19T06:18:43;20.70;;;13.13;;
5333;SDS011;2689;50.954;7.116;2023-02-19T06:21:10;25.40;;;13.40;;
5333;SDS011;2689;50.954;7.116;2023-02-19T06:23:37;19.87;;;12.90;;
5333;SDS011;2689;50.954;7.116;2023-02-19T06:26:07;20.97;;;13.50;;
5333;SDS011;2689;50.954;7.116;2023-02-19T06:28:36;19.60;;;13.80;;
5333;SDS011;2689;50.954;7.116;2023-02-19T06:31:03;20.30;;;13.70;;
5333;SDS011;2689;50.954;7.116;2023-02-19T06:33:32;23.20;;;14.17;;
5333;SDS011;2689;50.954;7.116;2023-02-19T06:36:00;17.53;;;14.00;;
5333;SDS011;2689;50.954;7.116;2023-02-19T06:38:28;19.67;;;13.70;;
5333;SDS011;2689;50.954;7.116;2023-02-19T06:40:58;24.43;;;14.10;;
5333;SDS011;2689;50.954;7.116;2023-02-19T06:43:26;21.50;;;14.40;;
5333;SDS011;2689;50.954;7.116;2023-02-19T06:45:52;18.10;;;15.17;;
5333;SDS011;2689;50.954;7.116;2023-02-19T06:48:19;23.00;;;15.40;;
5333;SDS011;2689;50.954;7.116;2023-02-19T06:50:47;19.63;;;13.33;;
5333;SDS011;2689;50.954;7.116;2023-02-19T06:53:14;26.17;;;14.23;;
5333;SDS011;2689;50.954;7.116;2023-02-19T06:55:41;23.30;;;16.30;;
5333;SDS011;2689;50.954;7.116;2023-02-19T06:58:08;21.60;;;15.30;;
5333;SDS011;2689;50.954;7.116;2023-02-19T07:00:34;19.90;;;14.20;;
5333;SDS011;2689;50.954;7.116;2023-02-19T07:03:01;20.50;;;14.90;;
5333;SDS011;2689;50.954;7.116;2023-02-19T07:05:28;19.70;;;13.53;;
5333;SDS011;2689;50.954;7.116;2023-02-19T07:07:56;19.50;;;14.13;;
5333;SDS011;2689;50.954;7.116;2023-02-19T07:10:23;23.30;;;15.67;;
5333;SDS011;2689;50.954;7.116;2023-02-19T07:12:49;22.20;;;14.33;;
5333;SDS011;2689;50.954;7.116;2023-02-19T07:15:16;25.37;;;14.70;;
5333;SDS011;2689;50.954;7.116;2023-02-19T07:17:43;15.97;;;10.70;;
5333;SDS011;2689;50.954;7.116;2023-02-19T07:20:10;28.53;;;13.90;;
5333;SDS011;2689;50.954;7.116;2023-02-19T07:22:38;22.00;;;12.80;;
5333;SDS011;2689;50.954;7.116;2023-02-19T07:25:06;25.97;;;15.80;;
5333;SDS011;2689;50.954;7.116;2023-02-19T07:27:33;19.20;;;13.90;;
5333;SDS011;2689;50.954;7.116;2023-02-19T07:30:00;16.83;;;11.30;;
5333;SDS011;2689;50.954;7.116;2023-02-19T07:32:27;21.30;;;13.67;;
5333;SDS011;2689;50.954;7.116;2023-02-19T07:34:53;22.00;;;14.77;;
5333;SDS011;2689;50.954;7.116;2023-02-19T07:37:20;21.53;;;11.80;;
5333;SDS011;2689;50.954;7.116;2023-02-19T07:39:47;16.43;;;10.27;;
5333;SDS011;2689;50.954;7.116;2023-02-19T07:42:17;20.47;;;11.00;;
5333;SDS011;2689;50.954;7.116;2023-02-19T07:44:43;17.43;;;10.90;;
5333;SDS011;2689;50.954;7.116;2023-02-19T07:47:10;16.80;;;11.80;;
5333;SDS011;2689;50.954;7.116;2023-02-19T07:49:37;16.40;;;10.10;;
5333;SDS011;2689;50.954;7.116;2023-02-19T07:52:04;17.40;;;10.30;;
5333;SDS011;2689;50.954;7.116;2023-02-19T07:54:30;18.47;;;11.03;;
5333;SDS011;2689;50.954;7.116;2023-02-19T07:56:57;15.50;;;10.10;;
5333;SDS011;2689;50.954;7.116;2023-02-19T07:59:25;15.80;;;9.30;;
5333;SDS011;2689;50.954;7.116;2023-02-19T08:01:52;13.80;;;8.07;;
5333;SDS011;2689;50.954;7.116;2023-02-19T08:04:39;14.10;;;8.60;;
5333;SDS011;2689;50.954;7.116;2023-02-19T08:07:05;14.00;;;7.40;;
5333;SDS011;2689;50.954;7.116;2023-02-19T08:09:32;11.93;;;8.20;;
5333;SDS011;2689;50.954;7.116;2023-02-19T08:11:59;15.83;;;8.30;;
5333;SDS011;2689;50.954;7.116;2023-02-19T08:14:41;13.00;;;8.53;;
5333;SDS011;2689;50.954;7.116;2023-02-19T08:17:08;16.70;;;9.53;;
5333;SDS011;2689;50.954;7.116;2023-02-19T08:19:35;12.37;;;8.03;;
5333;SDS011;2689;50.954;7.116;2023-02-19T08:22:01;12.17;;;7.33;;
5333;SDS011;2689;50.954;7.116;2023-02-19T08:24:28;10.63;;;8.57;;
5333;SDS011;2689;50.954;7.116;2023-02-19T08:26:57;21.50;;;9.33;;
5333;SDS011;2689;50.954;7.116;2023-02-19T08:29:24;14.00;;;6.33;;
5333;SDS011;2689;50.954;7.116;2023-02-19T08:31:53;12.30;;;8.40;;
5333;SDS011;2689;50.954;7.116;2023-02-19T08:34:19;16.07;;;8.43;;
5333;SDS011;2689;50.954;7.116;2023-02-19T08:36:46;20.87;;;9.23;;
5333;SDS011;2689;50.954;7.116;2023-02-19T08:39:13;15.30;;;7.37;;
5333;SDS011;2689;50.954;7.116;2023-02-19T08:41:39;26.17;;;9.90;;
5333;SDS011;2689;50.954;7.116;2023-02-19T08:44:06;20.27;;;10.03;;
5333;SDS011;2689;50.954;7.116;2023-02-19T08:46:33;18.57;;;9.37;;
5333;SDS011;2689;50.954;7.116;2023-02-19T08:49:01;18.23;;;9.93;;
5333;SDS011;2689;50.954;7.116;2023-02-19T08:51:28;14.00;;;9.73;;
5333;SDS011;2689;50.954;7.116;2023-02-19T08:53:55;15.90;;;10.63;;
5333;SDS011;2689;50.954;7.116;2023-02-19T08:56:21;17.10;;;10.50;;
5333;SDS011;2689;50.954;7.116;2023-02-19T08:58:48;16.73;;;8.53;;
5333;SDS011;2689;50.954;7.116;2023-02-19T09:01:15;15.60;;;8.50;;
5333;SDS011;2689;50.954;7.116;2023-02-19T09:03:43;18.73;;;8.90;;
5333;SDS011;2689;50.954;7.116;2023-02-19T09:06:13;17.50;;;10.20;;
5333;SDS011;2689;50.954;7.116;2023-02-19T09:08:41;14.77;;;8.17;;
5333;SDS011;2689;50.954;7.116;2023-02-19T09:11:08;23.40;;;9.30;;
5333;SDS011;2689;50.954;7.116;2023-02-19T09:13:35;18.57;;;8.87;;
5333;SDS011;2689;50.954;7.116;2023-02-19T09:16:02;18.67;;;8.67;;
5333;SDS011;2689;50.954;7.116;2023-02-19T09:18:29;19.40;;;10.57;;
5333;SDS011;2689;50.954;7.116;2023-02-19T09:20:58;21.30;;;10.43;;
5333;SDS011;2689;50.954;7.116;2023-02-19T09:23:26;16.80;;;9.80;;
5333;SDS011;2689;50.954;7.116;2023-02-19T09:25:56;16.47;;;8.40;;
5333;SDS011;2689;50.954;7.116;2023-02-19T09:28:24;11.30;;;5.77;;
5333;SDS011;2689;50.954;7.116;2023-02-19T09:30:52;23.30;;;7.20;;
5333;SDS011;2689;50.954;7.116;2023-02-19T09:33:18;16.50;;;10.00;;
5333;SDS011;2689;50.954;7.116;2023-02-19T09:35:45;17.10;;;7.73;;
5333;SDS011;2689;50.954;7.116;2023-02-19T09:38:12;20.73;;;9.43;;
5333;SDS011;2689;50.954;7.116;2023-02-19T09:40:40;18.57;;;9.03;;
5333;SDS011;2689;50.954;7.116;2023-02-19T09:43:07;16.80;;;8.70;;
5333;SDS011;2689;50.954;7.116;2023-02-19T09:45:40;17.03;;;8.30;;
5333;SDS011;2689;50.954;7.116;2023-02-19T09:48:07;13.33;;;7.80;;
5333;SDS011;2689;50.954;7.116;2023-02-19T09:50:36;14.60;;;7.63;;
5333;SDS011;2689;50.954;7.116;2023-02-19T09:53:10;15.73;;;7.20;;
5333;SDS011;2689;50.954;7.116;2023-02-19T09:55:41;13.03;;;6.53;;
5333;SDS011;2689;50.954;7.116;2023-02-19T09:58:13;15.00;;;6.80;;
5333;SDS011;2689;50.954;7.116;2023-02-19T10:00:48;16.23;;;6.37;;
5333;SDS011;2689;50.954;7.116;2023-02-19T10:03:20;12.40;;;5.60;;
5333;SDS011;2689;50.954;7.116;2023-02-19T10:05:50;12.47;;;5.23;;
5333;SDS011;2689;50.954;7.116;2023-02-19T10:08:19;8.50;;;5.03;;
5333;SDS011;2689;50.954;7.116;2023-02-19T10:10:47;10.43;;;5.40;;
5333;SDS011;2689;50.954;7.116;2023-02-19T10:13:17;11.40;;;4.97;;
5333;SDS011;2689;50.954;7.116;2023-02-19T10:15:46;21.17;;;5.50;;
5333;SDS011;2689;50.954;7.116;2023-02-19T10:18:15;10.97;;;5.87;;
5333;SDS011;2689;50.954;7.116;2023-02-19T10:20:44;13.33;;;6.47;;
5333;SDS011;2689;50.954;7.116;2023-02-19T10:23:12;13.83;;;6.13;;
5333;SDS011;2689;50.954;7.116;2023-02-19T10:25:42;7.53;;;4.97;;
5333;SDS011;2689;50.954;7.116;2023-02-19T10:28:13;10.20;;;5.30;;
5333;SDS011;2689;50.954;7.116;2023-02-19T10:30:43;9.90;;;5.47;;
5333;SDS011;2689;50.954;7.116;2023-02-19T10:33:14;12.60;;;5.30;;
5333;SDS011;2689;50.954;7.116;2023-02-19T10:35:52;13.50;;;5.90;;
5333;SDS011;2689;50.954;7.116;2023-02-19T10:38:21;8.90;;;4.13;;
5333;SDS011;2689;50.954;7.116;2023-02-19T10:40:58;11.43;;;5.87;;
5333;SDS011;2689;50.954;7.116;2023-02-19T10:43:30;10.60;;;6.13;;
5333;SDS011;2689;50.954;7.116;2023-02-19T10:46:02;12.23;;;6.20;;
5333;SDS011;2689;50.954;7.116;2023-02-19T10:48:32;16.50;;;9.70;;
5333;SDS011;2689;50.954;7.116;2023-02-19T10:51:03;8.57;;;5.80;;
5333;SDS011;2689;50.954;7.116;2023-02-19T10:53:43;9.00;;;5.80;;
5333;SDS011;2689;50.954;7.116;2023-02-19T10:56:11;8.87;;;4.60;;
5333;SDS011;2689;50.954;7.116;2023-02-19T10:58:41;8.43;;;5.77;;
5333;SDS011;2689;50.954;7.116;2023-02-19T11:01:15;12.60;;;7.13;;
5333;SDS011;2689;50.954;7.116;2023-02-19T11:03:44;8.70;;;5.10;;
5333;SDS011;2689;50.954;7.116;2023-02-19T11:06:15;9.20;;;5.50;;
5333;SDS011;2689;50.954;7.116;2023-02-19T11:08:49;12.07;;;5.97;;
5333;SDS011;2689;50.954;7.116;2023-02-19T11:11:22;12.47;;;7.33;;
5333;SDS011;2689;50.954;7.116;2023-02-19T11:14:01;11.60;;;7.30;;
5333;SDS011;2689;50.954;7.116;2023-02-19T11:16:38;18.80;;;10.90;;
5333;SDS011;2689;50.954;7.116;2023-02-19T11:19:18;12.83;;;7.73;;
5333;SDS011;2689;50.954;7.116;2023-02-19T11:21:53;11.53;;;6.67;;
5333;SDS011;2689;50.954;7.116;2023-02-19T11:24:22;12.90;;;7.27;;
5333;SDS011;2689;50.954;7.116;2023-02-19T11:26:53;9.67;;;7.00;;
5333;SDS011;2689;50.954;7.116;2023-02-19T11:29:22;12.77;;;6.93;;
5333;SDS011;2689;50.954;7.116;2023-02-19T11:31:52;11.23;;;6.17;;
5333;SDS011;2689;50.954;7.116;2023-02-19T11:34:24;12.30;;;6.33;;
5333;SDS011;2689;50.954;7.116;2023-02-19T11:37:06;9.20;;;6.27;;
5333;SDS011;2689;50.954;7.116;2023-02-19T11:39:34;11.77;;;5.67;;
5333;SDS011;2689;50.954;7.116;2023-02-19T11:42:09;10.53;;;7.17;;
5333;SDS011;2689;50.954;7.116;2023-02-19T11:44:46;11.50;;;5.70;;
5333;SDS011;2689;50.954;7.116;2023-02-19T11:47:37;11.07;;;6.87;;
5333;SDS011;2689;50.954;7.116;2023-02-19T11:50:21;10.67;;;6.03;;
5333;SDS011;2689;50.954;7.116;2023-02-19T11:52:55;10.80;;;6.30;;
5333;SDS011;2689;50.954;7.116;2023-02-19T11:55:33;8.20;;;5.63;;
5333;SDS011;2689;50.954;7.116;2023-02-19T11:58:14;7.70;;;5.33;;
5333;SDS011;2689;50.954;7.116;2023-02-19T12:01:03;7.47;;;5.47;;
5333;SDS011;2689;50.954;7.116;2023-02-19T12:03:43;10.70;;;7.13;;
5333;SDS011;2689;50.954;7.116;2023-02-19T12:06:41;8.50;;;5.90;;
5333;SDS011;2689;50.954;7.116;2023-02-19T12:09:23;7.40;;;5.13;;
5333;SDS011;2689;50.954;7.116;2023-02-19T12:12:08;8.40;;;4.93;;
5333;SDS011;2689;50.954;7.116;2023-02-19T12:17:55;7.10;;;4.80;;
5333;SDS011;2689;50.954;7.116;2023-02-19T12:20:40;9.10;;;5.90;;
5333;SDS011;2689;50.954;7.116;2023-02-19T12:23:28;8.20;;;4.90;;
5333;SDS011;2689;50.954;7.116;2023-02-19T12:26:04;9.93;;;5.20;;
5333;SDS011;2689;50.954;7.116;2023-02-19T12:31:31;8.33;;;4.93;;
5333;SDS011;2689;50.954;7.116;2023-02-19T12:37:25;10.03;;;5.90;;
5333;SDS011;2689;50.954;7.116;2023-02-19T12:40:00;14.37;;;6.67;;
5333;SDS011;2689;50.954;7.116;2023-02-19T12:42:47;7.40;;;6.10;;
5333;SDS011;2689;50.954;7.116;2023-02-19T12:45:23;13.90;;;7.57;;
5333;SDS011;2689;50.954;7.116;2023-02-19T12:47:57;11.53;;;7.60;;
5333;SDS011;2689;50.954;7.116;2023-02-19T12:50:28;6.60;;;5.57;;
5333;SDS011;2689;50.954;7.116;2023-02-19T12:52:58;10.53;;;6.67;;
5333;SDS011;2689;50.954;7.116;2023-02-19T12:55:31;12.83;;;5.40;;
5333;SDS011;2689;50.954;7.116;2023-02-19T12:58:01;10.87;;;5.43;;
5333;SDS011;2689;50.954;7.116;2023-02-19T13:00:32;12.10;;;6.30;;
5333;SDS011;2689;50.954;7.116;2023-02-19T13:03:07;12.63;;;9.60;;
5333;SDS011;2689;50.954;7.116;2023-02-19T13:05:41;9.83;;;7.40;;
5333;SDS011;2689;50.954;7.116;2023-02-19T13:08:17;13.43;;;7.20;;
5333;SDS011;2689;50.954;7.116;2023-02-19T13:10:50;10.67;;;7.60;;
5333;SDS011;2689;50.954;7.116;2023-02-19T13:13:21;7.43;;;5.47;;
5333;SDS011;2689;50.954;7.116;2023-02-19T13:15:51;7.10;;;5.07;;
5333;SDS011;2689;50.954;7.116;2023-02-19T13:18:23;8.07;;;4.77;;
5333;SDS011;2689;50.954;7.116;2023-02-19T13:20:55;8.23;;;5.00;;
5333;SDS011;2689;50.954;7.116;2023-02-19T13:23:24;7.47;;;3.87;;
5333;SDS011;2689;50.954;7.116;2023-02-19T13:29:11;4.73;;;3.63;;
5333;SDS011;2689;50.954;7.116;2023-02-19T13:31:55;6.73;;;3.00;;
5333;SDS011;2689;50.954;7.116;2023-02-19T13:34:38;8.27;;;3.70;;
5333;SDS011;2689;50.954;7.116;2023-02-19T13:37:15;9.60;;;4.07;;
5333;SDS011;2689;50.954;7.116;2023-02-19T13:39:47;6.90;;;3.67;;
5333;SDS011;2689;50.954;7.116;2023-02-19T13:42:22;8.90;;;4.70;;
5333;SDS011;2689;50.954;7.116;2023-02-19T13:44:50;5.70;;;4.27;;
5333;SDS011;2689;50.954;7.116;2023-02-19T13:50:16;11.00;;;4.47;;
5333;SDS011;2689;50.954;7.116;2023-02-19T13:52:45;8.73;;;4.40;;
5333;SDS011;2689;50.954;7.116;2023-02-19T13:58:35;10.97;;;6.37;;
5333;SDS011;2689;50.954;7.116;2023-02-19T14:01:18;9.87;;;4.87;;
5333;SDS011;2689;50.954;7.116;2023-02-19T14:04:06;4.60;;;3.10;;
5333;SDS011;2689;50.954;7.116;2023-02-19T14:06:41;5.33;;;4.40;;
5333;SDS011;2689;50.954;7.116;2023-02-19T14:10:01;8.07;;;5.80;;
5333;SDS011;2689;50.954;7.116;2023-02-19T14:12:35;6.33;;;5.10;;
5333;SDS011;2689;50.954;7.116;2023-02-19T14:21:13;2.70;;;2.43;;
5333;SDS011;2689;50.954;7.116;2023-02-19T14:23:42;6.50;;;3.13;;
5333;SDS011;2689;50.954;7.116;2023-02-19T14:26:10;10.77;;;6.03;;
5333;SDS011;2689;50.954;7.116;2023-02-19T14:28:43;7.30;;;4.23;;
5333;SDS011;2689;50.954;7.116;2023-02-19T14:31:15;5.67;;;4.47;;
5333;SDS011;2689;50.954;7.116;2023-02-19T14:33:49;5.13;;;3.77;;
5333;SDS011;2689;50.954;7.116;2023-02-19T14:36:28;9.40;;;4.83;;
5333;SDS011;2689;50.954;7.116;2023-02-19T14:38:59;9.67;;;6.33;;
5333;SDS011;2689;50.954;7.116;2023-02-19T14:41:29;11.80;;;6.80;;
5333;SDS011;2689;50.954;7.116;2023-02-19T14:44:00;7.50;;;5.60;;
5333;SDS011;2689;50.954;7.116;2023-02-19T14:46:28;7.40;;;6.53;;
5333;SDS011;2689;50.954;7.116;2023-02-19T14:48:58;7.90;;;6.00;;
5333;SDS011;2689;50.954;7.116;2023-02-19T14:51:31;9.63;;;7.70;;
5333;SDS011;2689;50.954;7.116;2023-02-19T14:54:03;10.50;;;6.87;;
5333;SDS011;2689;50.954;7.116;2023-02-19T14:56:36;13.47;;;8.43;;
5333;SDS011;2689;50.954;7.116;2023-02-19T14:59:07;11.63;;;8.07;;
5333;SDS011;2689;50.954;7.116;2023-02-19T15:01:51;17.37;;;9.23;;
5333;SDS011;2689;50.954;7.116;2023-02-19T15:04:20;11.20;;;8.97;;
5333;SDS011;2689;50.954;7.116;2023-02-19T15:06:48;10.33;;;7.73;;
5333;SDS011;2689;50.954;7.116;2023-02-19T15:09:18;7.37;;;5.00;;
5333;SDS011;2689;50.954;7.116;2023-02-19T15:11:46;14.43;;;7.33;;
5333;SDS011;2689;50.954;7.116;2023-02-19T15:14:18;11.70;;;8.33;;
5333;SDS011;2689;50.954;7.116;2023-02-19T15:16:47;10.10;;;9.13;;
5333;SDS011;2689;50.954;7.116;2023-02-19T15:19:19;13.60;;;7.20;;
5333;SDS011;2689;50.954;7.116;2023-02-19T15:21:48;11.33;;;9.23;;
5333;SDS011;2689;50.954;7.116;2023-02-19T15:24:15;11.70;;;7.57;;
5333;SDS011;2689;50.954;7.116;2023-02-19T15:26:46;14.90;;;8.70;;
5333;SDS011;2689;50.954;7.116;2023-02-19T15:29:17;15.50;;;10.90;;
5333;SDS011;2689;50.954;7.116;2023-02-19T15:31:45;12.40;;;8.87;;
5333;SDS011;2689;50.954;7.116;2023-02-19T15:34:14;14.70;;;9.53;;
5333;SDS011;2689;50.954;7.116;2023-02-19T15:36:42;15.93;;;9.83;;
5333;SDS011;2689;50.954;7.116;2023-02-19T15:39:11;14.63;;;9.50;;
5333;SDS011;2689;50.954;7.116;2023-02-19T15:41:48;18.73;;;10.67;;
5333;SDS011;2689;50.954;7.116;2023-02-19T15:44:23;16.17;;;9.80;;
5333;SDS011;2689;50.954;7.116;2023-02-19T15:46:56;11.13;;;9.30;;
5333;SDS011;2689;50.954;7.116;2023-02-19T15:49:32;11.60;;;8.60;;
5333;SDS011;2689;50.954;7.116;2023-02-19T15:52:09;12.70;;;10.37;;
5333;SDS011;2689;50.954;7.116;2023-02-19T15:54:42;15.10;;;10.67;;
5333;SDS011;2689;50.954;7.116;2023-02-19T15:57:15;15.67;;;8.57;;
5333;SDS011;2689;50.954;7.116;2023-02-19T16:02:36;18.17;;;11.27;;